Alma — WDF2845 — position and weather

sailwx.info

Track history (hours):
 
Tides and Currents Weather Stations Pressure Air Temp Water Temp Dewpoint Dewpoint Depression Visibility Wind Speed Wind Dir Waves Ship Positions

Alma

Owner: National Park Service, San Francisco, CA. More information available from US FCC via Universal Licensing System and Coast Guard Vessel Documentation Center.

Last reported at 2018-Jul-16 19:40 UTC. Time now 2018-Jul-20 08:32 UTC.
Position N 37°49' W 122°25'.

Length 20 m; draft 1.6 m.

Type: Sailing vessel. MMSI: 367432550.

Date/timePositionNaut miles runAvg speedWind from/ knotsBaromVisibWave heightAir tempDewpointWater temp
2018-Jul-16 19:40N 37°49' W 122°25'0 0.0
2018-Jul-16 19:30N 37°49' W 122°25'0 0.7
2018-Jul-16 19:00N 37°49' W 122°25'3 5.2
2018-Jul-16 18:30N 37°51' W 122°27'3 5.0
2018-Jul-16 18:00N 37°53' W 122°26'3 6.5
2018-Jul-16 17:30N 37°56' W 122°27'3 6.8
2018-Jul-16 17:00N 37°60' W 122°27'3 6.4
2018-Jul-16 16:30N 38°03' W 122°26'4 6.9
2018-Jul-16 15:59N 38°06' W 122°27'3 6.1
2018-Jul-16 15:30N 38°07' W 122°31'3 5.6
2018-Jul-16 15:00N 38°10' W 122°32'3 5.1
2018-Jul-16 14:30N 38°12' W 122°34'0 0.0
2018-Jul-16 01:33N 38°12' W 122°34'0 0.0
2018-Jul-16 01:30N 38°12' W 122°34'0 0.8
2018-Jul-16 01:00N 38°12' W 122°35'2 4.6
2018-Jul-16 00:30N 38°14' W 122°37'1 0.9
2018-Jul-15 23:29N 38°14' W 122°38'2 3.7
2018-Jul-15 23:00N 38°13' W 122°36'0 1.0
2018-Jul-15 22:30N 38°13' W 122°36'1 2.9
2018-Jul-15 22:00N 38°14' W 122°37'1 1.6
2018-Jul-15 21:30N 38°14' W 122°38'0 0.0
2018-Jul-15 01:44N 38°14' W 122°38'0 1.3
2018-Jul-15 01:30N 38°14' W 122°38'0 0.0
2018-Jul-15 01:00N 38°14' W 122°38'0 0.0
2018-Jul-14 15:18N 38°14' W 122°38'0 0.0
2018-Jul-14 15:00N 38°14' W 122°38'0 0.0
2018-Jul-14 14:00N 38°14' W 122°38'0 0.0
2018-Jul-14 13:30N 38°14' W 122°38'0 0.0
2018-Jul-13 12:21N 38°14' W 122°38'0 0.0
2018-Jul-13 00:58N 38°14' W 122°38'1 2.6
2018-Jul-13 00:30N 38°14' W 122°37'2 3.1
2018-Jul-13 00:00N 38°13' W 122°35'2 4.1
2018-Jul-12 23:30N 38°12' W 122°33'2 3.8
2018-Jul-12 22:59N 38°10' W 122°33'3 5.2
2018-Jul-12 22:30N 38°08' W 122°31'1 2.0
2018-Jul-12 22:00N 38°07' W 122°30'0 0.0
2018-Jul-12 21:29N 38°07' W 122°30'0 0.7
2018-Jul-12 21:00N 38°07' W 122°30'2 4.3
2018-Jul-12 20:25N 38°06' W 122°27'2 5.2
2018-Jul-12 20:00N 38°04' W 122°26'3 6.0
2018-Jul-12 19:30N 38°01' W 122°25'2 4.2
2018-Jul-12 19:00N 37°59' W 122°25'3 5.4
2018-Jul-12 18:31N 37°57' W 122°26'2 3.9
2018-Jul-12 18:00N 37°55' W 122°27'1 2.0
2018-Jul-12 17:31N 37°54' W 122°27'3 5.3
2018-Jul-12 17:01N 37°52' W 122°25'3 5.7
2018-Jul-12 16:31N 37°49' W 122°25'0 0.6
2018-Jul-12 16:01N 37°49' W 122°25'0 0.0
2018-Jul-12 15:31N 37°49' W 122°25'  
2018-Jul-07 23:14N 37°49' W 122°25'0 0.0
2018-Jul-07 23:00N 37°49' W 122°25'1 1.8
2018-Jul-07 22:30N 37°49' W 122°24'1 2.3
2018-Jul-07 22:00N 37°50' W 122°25'3 5.8
2018-Jul-07 21:30N 37°51' W 122°28'0 0.4
2018-Jul-07 21:00N 37°51' W 122°28'3 5.0
2018-Jul-07 20:30N 37°49' W 122°26'1 1.1
2018-Jul-07 20:00N 37°49' W 122°25'0 0.0
2018-Jul-07 19:30N 37°49' W 122°25'0 0.0
2018-Jul-07 19:00N 37°49' W 122°25'0 0.0
2018-Jul-07 18:30N 37°49' W 122°25'0 0.0
2018-Jul-07 18:00N 37°49' W 122°25'0 0.0
2018-Jul-07 17:30N 37°49' W 122°25'0 0.0
2018-Jul-07 17:00N 37°49' W 122°25'0 0.0
2018-Jul-07 16:30N 37°49' W 122°25'0 0.0
2018-Jul-06 23:26N 37°49' W 122°25'0 0.0
2018-Jul-06 23:00N 37°49' W 122°25'1 2.2
2018-Jul-06 22:30N 37°48' W 122°24'1 1.2
2018-Jul-06 22:00N 37°49' W 122°24'2 4.4
2018-Jul-06 21:31N 37°50' W 122°27'1 1.4
2018-Jul-06 21:00N 37°50' W 122°27'2 4.6
2018-Jul-06 20:31N 37°49' W 122°26'0 0.7
2018-Jul-06 20:00N 37°49' W 122°25'  
Track history (hours):
 
Tides and Currents Weather Stations Pressure Air Temp Water Temp Dewpoint Dewpoint Depression Visibility Wind Speed Wind Dir Waves Ship Positions

Alma

Owner: National Park Service, San Francisco, CA. More information available from US FCC via Universal Licensing System and Coast Guard Vessel Documentation Center.

Last reported at 2018-Jul-16 19:40 UTC. Time now 2018-Jul-20 08:32 UTC.
Position N 37°49' W 122°25'.

Length 20 m; draft 1.6 m.

Type: Sailing vessel. MMSI: 367432550.

Date/timePositionNaut miles runAvg speedWind from/ knotsBaromVisibWave heightAir tempDewpointWater temp
2018-Jul-16 19:40N 37°49' W 122°25'0 0.0
2018-Jul-16 19:30N 37°49' W 122°25'0 0.7
2018-Jul-16 19:00N 37°49' W 122°25'3 5.2
2018-Jul-16 18:30N 37°51' W 122°27'3 5.0
2018-Jul-16 18:00N 37°53' W 122°26'3 6.5
2018-Jul-16 17:30N 37°56' W 122°27'3 6.8
2018-Jul-16 17:00N 37°60' W 122°27'3 6.4
2018-Jul-16 16:30N 38°03' W 122°26'4 6.9
2018-Jul-16 15:59N 38°06' W 122°27'3 6.1
2018-Jul-16 15:30N 38°07' W 122°31'3 5.6
2018-Jul-16 15:00N 38°10' W 122°32'3 5.1
2018-Jul-16 14:30N 38°12' W 122°34'0 0.0
2018-Jul-16 01:33N 38°12' W 122°34'0 0.0
2018-Jul-16 01:30N 38°12' W 122°34'0 0.8
2018-Jul-16 01:00N 38°12' W 122°35'2 4.6
2018-Jul-16 00:30N 38°14' W 122°37'1 0.9
2018-Jul-15 23:29N 38°14' W 122°38'2 3.7
2018-Jul-15 23:00N 38°13' W 122°36'0 1.0
2018-Jul-15 22:30N 38°13' W 122°36'1 2.9
2018-Jul-15 22:00N 38°14' W 122°37'1 1.6
2018-Jul-15 21:30N 38°14' W 122°38'0 0.0
2018-Jul-15 01:44N 38°14' W 122°38'0 1.3
2018-Jul-15 01:30N 38°14' W 122°38'0 0.0
2018-Jul-15 01:00N 38°14' W 122°38'0 0.0
2018-Jul-14 15:18N 38°14' W 122°38'0 0.0
2018-Jul-14 15:00N 38°14' W 122°38'0 0.0
2018-Jul-14 14:00N 38°14' W 122°38'0 0.0
2018-Jul-14 13:30N 38°14' W 122°38'0 0.0
2018-Jul-13 12:21N 38°14' W 122°38'0 0.0
2018-Jul-13 00:58N 38°14' W 122°38'1 2.6
2018-Jul-13 00:30N 38°14' W 122°37'2 3.1
2018-Jul-13 00:00N 38°13' W 122°35'2 4.1
2018-Jul-12 23:30N 38°12' W 122°33'2 3.8
2018-Jul-12 22:59N 38°10' W 122°33'3 5.2
2018-Jul-12 22:30N 38°08' W 122°31'1 2.0
2018-Jul-12 22:00N 38°07' W 122°30'0 0.0
2018-Jul-12 21:29N 38°07' W 122°30'0 0.7
2018-Jul-12 21:00N 38°07' W 122°30'2 4.3
2018-Jul-12 20:25N 38°06' W 122°27'2 5.2
2018-Jul-12 20:00N 38°04' W 122°26'3 6.0
2018-Jul-12 19:30N 38°01' W 122°25'2 4.2
2018-Jul-12 19:00N 37°59' W 122°25'3 5.4
2018-Jul-12 18:31N 37°57' W 122°26'2 3.9
2018-Jul-12 18:00N 37°55' W 122°27'1 2.0
2018-Jul-12 17:31N 37°54' W 122°27'3 5.3
2018-Jul-12 17:01N 37°52' W 122°25'3 5.7
2018-Jul-12 16:31N 37°49' W 122°25'0 0.6
2018-Jul-12 16:01N 37°49' W 122°25'0 0.0
2018-Jul-12 15:31N 37°49' W 122°25'  
2018-Jul-07 23:14N 37°49' W 122°25'0 0.0
2018-Jul-07 23:00N 37°49' W 122°25'1 1.8
2018-Jul-07 22:30N 37°49' W 122°24'1 2.3
2018-Jul-07 22:00N 37°50' W 122°25'3 5.8
2018-Jul-07 21:30N 37°51' W 122°28'0 0.4
2018-Jul-07 21:00N 37°51' W 122°28'3 5.0
2018-Jul-07 20:30N 37°49' W 122°26'1 1.1
2018-Jul-07 20:00N 37°49' W 122°25'0 0.0
2018-Jul-07 19:30N 37°49' W 122°25'0 0.0
2018-Jul-07 19:00N 37°49' W 122°25'0 0.0
2018-Jul-07 18:30N 37°49' W 122°25'0 0.0
2018-Jul-07 18:00N 37°49' W 122°25'0 0.0
2018-Jul-07 17:30N 37°49' W 122°25'0 0.0
2018-Jul-07 17:00N 37°49' W 122°25'0 0.0
2018-Jul-07 16:30N 37°49' W 122°25'0 0.0
2018-Jul-06 23:26N 37°49' W 122°25'0 0.0
2018-Jul-06 23:00N 37°49' W 122°25'1 2.2
2018-Jul-06 22:30N 37°48' W 122°24'1 1.2
2018-Jul-06 22:00N 37°49' W 122°24'2 4.4
2018-Jul-06 21:31N 37°50' W 122°27'1 1.4
2018-Jul-06 21:00N 37°50' W 122°27'2 4.6
2018-Jul-06 20:31N 37°49' W 122°26'0 0.7
2018-Jul-06 20:00N 37°49' W 122°25'  

Dump ship's entire track history